Eynsford, United Kingdom
Current Conditions -  °F | °C
As of 11:50 AM on Sunday 23 Nov 2014 (Local Time) from EGKB Reporting Station
Moderate Rain Moderate Rain  
Wind Chill: 39°   Ceiling: 400
Heat Index: 45°   Visibility: 1.8mi
Dew Point: 43°   Wind: 10mph
Humidity: 93%   Direction: 360°N
Pressure: 30"   Gusts: NA
Location:  51.37°N, 0.21°E
Report Text: EGKB 231150Z 36009KT 3000 RA BR BKN004 07/06 Q1016
Loading
Personal Weather Stations






























Interactive Weather Map New forecast layout! Learn more

10-Day Weather Forecast

Advertisements
Track Severe Weather on mobile